createdAt,value
2018-07-24T20:37:46.026Z,34.25
2018-07-24T20:40:15.139Z,34.42
2018-07-24T20:42:45.268Z,34.68
2018-07-24T20:45:16.438Z,34.29
2018-07-24T20:47:46.570Z,34.85
2018-07-24T20:50:15.729Z,34.92
2018-07-24T20:52:48.368Z,34.99
2018-07-24T20:55:17.527Z,34.50
2018-07-24T20:57:50.322Z,34.84
2018-07-24T21:00:20.624Z,34.88
2018-07-24T21:02:49.814Z,35.12
2018-07-24T21:05:18.982Z,34.86
2018-07-24T21:07:48.111Z,35.34
2018-07-24T21:10:21.123Z,35.59
2018-07-24T21:12:50.831Z,35.78
2018-07-24T21:15:20.183Z,35.65
2018-07-24T21:17:49.330Z,35.31
2018-07-24T21:20:19.529Z,35.63
2018-07-24T21:22:48.668Z,35.82
2018-07-24T21:25:17.952Z,35.40
2018-07-24T21:27:47.046Z,35.51
2018-07-24T21:30:19.500Z,35.25
2018-07-24T21:32:48.702Z,35.71
2018-07-24T21:35:18.382Z,35.77
2018-07-24T21:37:53.174Z,35.80
2018-07-24T21:40:30.046Z,35.46
2018-07-24T21:42:59.475Z,35.44
2018-07-24T21:45:30.779Z,35.78
2018-07-24T21:48:00.692Z,36.04
2018-07-24T21:50:34.618Z,36.33
2018-07-24T21:53:05.710Z,35.77
2018-07-24T21:55:36.915Z,35.98
2018-07-24T21:58:10.357Z,35.92
2018-07-24T22:00:42.685Z,35.87
2018-07-24T22:03:12.047Z,35.44
2018-07-24T22:05:43.200Z,35.93
2018-07-24T22:08:14.370Z,35.76
2018-07-24T22:10:43.532Z,36.10
2018-07-24T22:13:12.771Z,36.22
2018-07-24T22:15:42.942Z,36.21
2018-07-24T22:18:12.078Z,36.17
2018-07-24T22:20:43.398Z,35.74
2018-07-24T22:23:13.514Z,35.53
2018-07-24T22:25:42.712Z,35.66
2018-07-24T22:28:17.627Z,35.68
2018-07-24T22:30:46.780Z,35.80
2018-07-24T22:33:22.282Z,36.04
2018-07-24T22:35:51.828Z,36.42
2018-07-24T22:38:20.910Z,36.21
2018-07-24T22:40:50.106Z,36.42
2018-07-24T22:43:19.190Z,36.46
2018-07-24T22:45:50.454Z,35.84
2018-07-24T22:48:19.642Z,36.19
2018-07-24T22:50:48.767Z,36.27
2018-07-24T22:53:22.846Z,36.49
2018-07-24T22:55:52.985Z,36.47
2018-07-24T22:58:24.132Z,36.23
2018-07-24T23:00:56.505Z,36.19
2018-07-24T23:03:31.212Z,36.29
2018-07-24T23:06:05.210Z,36.66
2018-07-24T23:08:36.392Z,36.40
2018-07-24T23:11:09.254Z,36.46
2018-07-24T23:13:38.354Z,36.52
2018-07-24T23:16:13.591Z,36.71
2018-07-24T23:18:44.734Z,36.27
2018-07-24T23:21:13.827Z,35.96
2018-07-24T23:23:42.906Z,36.50
2018-07-24T23:26:17.156Z,36.82
2018-07-24T23:28:46.355Z,36.97
2018-07-24T23:31:17.610Z,37.14
2018-07-24T23:33:47.770Z,36.79
2018-07-24T23:36:22.128Z,36.63
2018-07-24T23:38:51.327Z,36.59
2018-07-24T23:41:22.450Z,36.73
2018-07-24T23:43:52.601Z,36.69
2018-07-24T23:46:21.799Z,36.69
2018-07-24T23:48:50.866Z,36.81
2018-07-24T23:51:25.913Z,36.63
2018-07-24T23:54:06.402Z,37.05
2018-07-24T23:56:40.090Z,37.17
2018-07-24T23:59:09.178Z,37.41
